sensor_id;sensor_type;location;lat;lon;timestamp;temperature;humidity
26691;DHT22;14307;51.718;8.938;2023-05-10T00:00:46;14.80;99.90
26691;DHT22;14307;51.718;8.938;2023-05-10T00:03:13;14.80;99.90
26691;DHT22;14307;51.718;8.938;2023-05-10T00:05:39;14.80;99.90
26691;DHT22;14307;51.718;8.938;2023-05-10T00:08:06;14.70;99.90
26691;DHT22;14307;51.718;8.938;2023-05-10T00:10:33;14.70;99.90
26691;DHT22;14307;51.718;8.938;2023-05-10T00:13:00;14.60;99.90
26691;DHT22;14307;51.718;8.938;2023-05-10T00:15:27;14.60;99.90
26691;DHT22;14307;51.718;8.938;2023-05-10T00:17:53;14.70;99.90
26691;DHT22;14307;51.718;8.938;2023-05-10T00:20:20;14.70;99.90
26691;DHT22;14307;51.718;8.938;2023-05-10T00:22:47;14.70;99.90
26691;DHT22;14307;51.718;8.938;2023-05-10T00:25:14;14.70;99.90
26691;DHT22;14307;51.718;8.938;2023-05-10T00:27:40;14.80;99.90
26691;DHT22;14307;51.718;8.938;2023-05-10T00:30:07;14.80;99.90
26691;DHT22;14307;51.718;8.938;2023-05-10T00:32:34;14.50;99.90
26691;DHT22;14307;51.718;8.938;2023-05-10T00:35:01;14.40;99.90
26691;DHT22;14307;51.718;8.938;2023-05-10T00:37:28;14.30;99.90
26691;DHT22;14307;51.718;8.938;2023-05-10T00:39:54;14.30;99.90
26691;DHT22;14307;51.718;8.938;2023-05-10T00:42:22;14.20;99.90
26691;DHT22;14307;51.718;8.938;2023-05-10T00:44:50;14.10;99.90
26691;DHT22;14307;51.718;8.938;2023-05-10T00:47:17;14.10;99.90
26691;DHT22;14307;51.718;8.938;2023-05-10T00:49:44;14.00;99.90
26691;DHT22;14307;51.718;8.938;2023-05-10T00:52:12;14.00;99.90
26691;DHT22;14307;51.718;8.938;2023-05-10T00:54:39;13.90;99.90
26691;DHT22;14307;51.718;8.938;2023-05-10T00:57:06;13.90;99.90
26691;DHT22;14307;51.718;8.938;2023-05-10T00:59:33;13.90;99.90
26691;DHT22;14307;51.718;8.938;2023-05-10T01:01:59;13.90;99.90
26691;DHT22;14307;51.718;8.938;2023-05-10T01:04:28;14.00;99.90
26691;DHT22;14307;51.718;8.938;2023-05-10T01:06:56;13.90;99.90
26691;DHT22;14307;51.718;8.938;2023-05-10T01:09:23;14.00;99.90
26691;DHT22;14307;51.718;8.938;2023-05-10T01:11:53;13.90;99.90
26691;DHT22;14307;51.718;8.938;2023-05-10T01:14:21;13.90;99.90
26691;DHT22;14307;51.718;8.938;2023-05-10T01:16:48;13.90;99.90
26691;DHT22;14307;51.718;8.938;2023-05-10T01:19:17;13.90;99.90
26691;DHT22;14307;51.718;8.938;2023-05-10T01:24:43;13.90;99.90
26691;DHT22;14307;51.718;8.938;2023-05-10T01:33:07;13.80;99.90
26691;DHT22;14307;51.718;8.938;2023-05-10T01:38:24;13.80;99.90
26691;DHT22;14307;51.718;8.938;2023-05-10T01:43:46;13.80;99.90
26691;DHT22;14307;51.718;8.938;2023-05-10T01:46:17;13.70;99.90
26691;DHT22;14307;51.718;8.938;2023-05-10T01:48:53;13.70;99.90
26691;DHT22;14307;51.718;8.938;2023-05-10T01:51:27;13.80;99.90
26691;DHT22;14307;51.718;8.938;2023-05-10T01:54:03;13.80;99.90
26691;DHT22;14307;51.718;8.938;2023-05-10T01:56:33;13.80;99.90
26691;DHT22;14307;51.718;8.938;2023-05-10T01:59:05;13.70;99.90
26691;DHT22;14307;51.718;8.938;2023-05-10T02:01:33;13.60;99.90
26691;DHT22;14307;51.718;8.938;2023-05-10T02:04:01;13.60;99.90
26691;DHT22;14307;51.718;8.938;2023-05-10T02:06:31;13.60;99.90
26691;DHT22;14307;51.718;8.938;2023-05-10T02:09:01;13.50;99.90
26691;DHT22;14307;51.718;8.938;2023-05-10T02:11:29;13.50;99.90
26691;DHT22;14307;51.718;8.938;2023-05-10T02:13:58;13.50;99.90
26691;DHT22;14307;51.718;8.938;2023-05-10T02:16:28;13.50;99.90
26691;DHT22;14307;51.718;8.938;2023-05-10T02:18:59;13.50;99.90
26691;DHT22;14307;51.718;8.938;2023-05-10T02:21:28;13.50;99.90
26691;DHT22;14307;51.718;8.938;2023-05-10T02:23:57;13.30;99.90
26691;DHT22;14307;51.718;8.938;2023-05-10T02:26:24;13.10;99.90
26691;DHT22;14307;51.718;8.938;2023-05-10T02:28:53;13.00;99.90
26691;DHT22;14307;51.718;8.938;2023-05-10T02:31:21;12.70;99.90
26691;DHT22;14307;51.718;8.938;2023-05-10T02:33:49;12.60;99.90
26691;DHT22;14307;51.718;8.938;2023-05-10T02:36:17;12.50;99.90
26691;DHT22;14307;51.718;8.938;2023-05-10T02:38:46;12.50;99.90
26691;DHT22;14307;51.718;8.938;2023-05-10T02:41:14;12.30;99.90
26691;DHT22;14307;51.718;8.938;2023-05-10T02:43:42;12.30;99.90
26691;DHT22;14307;51.718;8.938;2023-05-10T02:46:09;12.30;99.90
26691;DHT22;14307;51.718;8.938;2023-05-10T02:48:36;12.30;99.90
26691;DHT22;14307;51.718;8.938;2023-05-10T02:51:06;12.20;99.90
26691;DHT22;14307;51.718;8.938;2023-05-10T02:53:36;12.20;99.90
26691;DHT22;14307;51.718;8.938;2023-05-10T02:56:13;12.30;99.90
26691;DHT22;14307;51.718;8.938;2023-05-10T02:58:40;12.30;99.90
26691;DHT22;14307;51.718;8.938;2023-05-10T03:01:07;12.40;99.90
26691;DHT22;14307;51.718;8.938;2023-05-10T03:03:34;12.30;99.90
26691;DHT22;14307;51.718;8.938;2023-05-10T03:06:01;12.30;99.90
26691;DHT22;14307;51.718;8.938;2023-05-10T03:08:28;12.40;99.90
26691;DHT22;14307;51.718;8.938;2023-05-10T03:11:12;12.40;99.90
26691;DHT22;14307;51.718;8.938;2023-05-10T03:16:47;12.40;99.90
26691;DHT22;14307;51.718;8.938;2023-05-10T03:19:34;12.30;99.90
26691;DHT22;14307;51.718;8.938;2023-05-10T03:22:08;12.30;99.90
26691;DHT22;14307;51.718;8.938;2023-05-10T03:24:39;12.30;99.90
26691;DHT22;14307;51.718;8.938;2023-05-10T03:27:08;12.30;99.90
26691;DHT22;14307;51.718;8.938;2023-05-10T03:29:36;12.30;99.90
26691;DHT22;14307;51.718;8.938;2023-05-10T03:32:03;12.30;99.90
26691;DHT22;14307;51.718;8.938;2023-05-10T03:34:31;12.40;99.90
26691;DHT22;14307;51.718;8.938;2023-05-10T03:36:58;12.40;99.90
26691;DHT22;14307;51.718;8.938;2023-05-10T03:39:27;12.40;99.90
26691;DHT22;14307;51.718;8.938;2023-05-10T03:41:57;12.40;99.90
26691;DHT22;14307;51.718;8.938;2023-05-10T03:44:24;12.40;99.90
26691;DHT22;14307;51.718;8.938;2023-05-10T03:46:50;12.40;99.90
26691;DHT22;14307;51.718;8.938;2023-05-10T03:49:17;12.40;99.90
26691;DHT22;14307;51.718;8.938;2023-05-10T03:51:44;12.30;99.90
26691;DHT22;14307;51.718;8.938;2023-05-10T03:54:11;12.30;99.90
26691;DHT22;14307;51.718;8.938;2023-05-10T03:56:37;12.30;99.90
26691;DHT22;14307;51.718;8.938;2023-05-10T03:59:05;12.30;99.90
26691;DHT22;14307;51.718;8.938;2023-05-10T04:01:35;12.30;99.90
26691;DHT22;14307;51.718;8.938;2023-05-10T04:04:02;12.30;99.90
26691;DHT22;14307;51.718;8.938;2023-05-10T04:06:30;12.30;99.90
26691;DHT22;14307;51.718;8.938;2023-05-10T04:08:58;12.20;99.90
26691;DHT22;14307;51.718;8.938;2023-05-10T04:11:26;12.20;99.90
26691;DHT22;14307;51.718;8.938;2023-05-10T04:13:53;12.20;99.90
26691;DHT22;14307;51.718;8.938;2023-05-10T04:16:20;12.20;99.90
26691;DHT22;14307;51.718;8.938;2023-05-10T04:18:46;12.20;99.90
26691;DHT22;14307;51.718;8.938;2023-05-10T04:21:13;12.20;99.90
26691;DHT22;14307;51.718;8.938;2023-05-10T04:23:40;12.10;99.90
26691;DHT22;14307;51.718;8.938;2023-05-10T04:26:07;12.10;99.90
26691;DHT22;14307;51.718;8.938;2023-05-10T04:28:34;12.10;99.90
26691;DHT22;14307;51.718;8.938;2023-05-10T04:31:09;12.10;99.90
26691;DHT22;14307;51.718;8.938;2023-05-10T04:33:36;12.20;99.90
26691;DHT22;14307;51.718;8.938;2023-05-10T04:36:03;12.20;99.90
26691;DHT22;14307;51.718;8.938;2023-05-10T04:38:30;12.20;99.90
26691;DHT22;14307;51.718;8.938;2023-05-10T04:41:07;12.20;99.90
26691;DHT22;14307;51.718;8.938;2023-05-10T04:43:35;12.20;99.90
26691;DHT22;14307;51.718;8.938;2023-05-10T04:46:03;12.30;99.90
26691;DHT22;14307;51.718;8.938;2023-05-10T04:48:30;12.20;99.90
26691;DHT22;14307;51.718;8.938;2023-05-10T04:50:56;12.20;99.90
26691;DHT22;14307;51.718;8.938;2023-05-10T04:53:23;12.20;99.90
26691;DHT22;14307;51.718;8.938;2023-05-10T04:55:50;12.10;99.90
26691;DHT22;14307;51.718;8.938;2023-05-10T04:58:17;12.10;99.90
26691;DHT22;14307;51.718;8.938;2023-05-10T05:00:44;12.20;99.90
26691;DHT22;14307;51.718;8.938;2023-05-10T05:03:10;12.20;99.90
26691;DHT22;14307;51.718;8.938;2023-05-10T05:05:37;12.10;99.90
26691;DHT22;14307;51.718;8.938;2023-05-10T05:08:04;12.20;99.90
26691;DHT22;14307;51.718;8.938;2023-05-10T05:10:31;12.20;99.90
26691;DHT22;14307;51.718;8.938;2023-05-10T05:12:58;12.20;99.90
26691;DHT22;14307;51.718;8.938;2023-05-10T05:15:25;12.10;99.90
26691;DHT22;14307;51.718;8.938;2023-05-10T05:17:51;12.10;99.90
26691;DHT22;14307;51.718;8.938;2023-05-10T05:20:18;12.00;99.90
26691;DHT22;14307;51.718;8.938;2023-05-10T05:22:45;12.10;99.90
26691;DHT22;14307;51.718;8.938;2023-05-10T05:25:12;12.10;99.90
26691;DHT22;14307;51.718;8.938;2023-05-10T05:27:39;12.00;99.90
26691;DHT22;14307;51.718;8.938;2023-05-10T05:30:07;11.90;99.90
26691;DHT22;14307;51.718;8.938;2023-05-10T05:32:34;11.90;99.90
26691;DHT22;14307;51.718;8.938;2023-05-10T05:35:01;11.80;99.90
26691;DHT22;14307;51.718;8.938;2023-05-10T05:37:28;11.80;99.90
26691;DHT22;14307;51.718;8.938;2023-05-10T05:39:54;11.80;99.90
26691;DHT22;14307;51.718;8.938;2023-05-10T05:42:21;11.90;99.90
26691;DHT22;14307;51.718;8.938;2023-05-10T05:44:48;11.90;99.90
26691;DHT22;14307;51.718;8.938;2023-05-10T05:47:15;11.90;99.90
26691;DHT22;14307;51.718;8.938;2023-05-10T05:49:42;11.80;99.90
26691;DHT22;14307;51.718;8.938;2023-05-10T05:52:09;11.80;99.90
26691;DHT22;14307;51.718;8.938;2023-05-10T05:54:35;11.90;99.90
26691;DHT22;14307;51.718;8.938;2023-05-10T05:57:02;12.00;99.90
26691;DHT22;14307;51.718;8.938;2023-05-10T05:59:29;11.90;99.90
26691;DHT22;14307;51.718;8.938;2023-05-10T06:01:55;11.90;99.90
26691;DHT22;14307;51.718;8.938;2023-05-10T06:04:22;11.90;99.90
26691;DHT22;14307;51.718;8.938;2023-05-10T06:06:49;11.90;99.90
26691;DHT22;14307;51.718;8.938;2023-05-10T06:09:15;11.90;99.90
26691;DHT22;14307;51.718;8.938;2023-05-10T06:11:42;11.90;99.90
26691;DHT22;14307;51.718;8.938;2023-05-10T06:14:09;12.00;99.90
26691;DHT22;14307;51.718;8.938;2023-05-10T06:16:36;12.00;99.90
26691;DHT22;14307;51.718;8.938;2023-05-10T06:19:03;12.00;99.90
26691;DHT22;14307;51.718;8.938;2023-05-10T06:21:30;12.00;99.90
26691;DHT22;14307;51.718;8.938;2023-05-10T06:23:57;11.90;99.90
26691;DHT22;14307;51.718;8.938;2023-05-10T06:26:24;11.90;99.90
26691;DHT22;14307;51.718;8.938;2023-05-10T06:28:51;12.00;99.90
26691;DHT22;14307;51.718;8.938;2023-05-10T06:31:18;12.00;99.90
26691;DHT22;14307;51.718;8.938;2023-05-10T06:33:44;12.00;99.90
26691;DHT22;14307;51.718;8.938;2023-05-10T06:36:11;12.10;99.90
26691;DHT22;14307;51.718;8.938;2023-05-10T06:38:38;11.90;99.90
26691;DHT22;14307;51.718;8.938;2023-05-10T06:41:04;11.90;99.90
26691;DHT22;14307;51.718;8.938;2023-05-10T06:43:31;11.80;99.90
26691;DHT22;14307;51.718;8.938;2023-05-10T06:45:59;11.80;99.90
26691;DHT22;14307;51.718;8.938;2023-05-10T06:48:26;11.80;99.90
26691;DHT22;14307;51.718;8.938;2023-05-10T06:50:52;11.80;99.90
26691;DHT22;14307;51.718;8.938;2023-05-10T06:53:19;11.80;99.90
26691;DHT22;14307;51.718;8.938;2023-05-10T06:55:45;11.80;99.90
26691;DHT22;14307;51.718;8.938;2023-05-10T06:58:12;11.90;99.90
26691;DHT22;14307;51.718;8.938;2023-05-10T07:00:39;12.00;99.90
26691;DHT22;14307;51.718;8.938;2023-05-10T07:03:07;11.90;99.90
26691;DHT22;14307;51.718;8.938;2023-05-10T07:05:34;12.00;99.90
26691;DHT22;14307;51.718;8.938;2023-05-10T07:08:01;12.10;99.90
26691;DHT22;14307;51.718;8.938;2023-05-10T07:10:28;12.20;99.90
26691;DHT22;14307;51.718;8.938;2023-05-10T07:12:55;12.30;99.90
26691;DHT22;14307;51.718;8.938;2023-05-10T07:15:22;12.40;99.90
26691;DHT22;14307;51.718;8.938;2023-05-10T07:17:49;12.30;99.90
26691;DHT22;14307;51.718;8.938;2023-05-10T07:20:16;12.30;99.90
26691;DHT22;14307;51.718;8.938;2023-05-10T07:22:42;12.50;99.90
26691;DHT22;14307;51.718;8.938;2023-05-10T07:25:09;12.70;99.90
26691;DHT22;14307;51.718;8.938;2023-05-10T07:27:37;12.80;99.90
26691;DHT22;14307;51.718;8.938;2023-05-10T07:30:04;12.80;99.90
26691;DHT22;14307;51.718;8.938;2023-05-10T07:32:30;12.70;99.90
26691;DHT22;14307;51.718;8.938;2023-05-10T07:34:57;12.70;99.90
26691;DHT22;14307;51.718;8.938;2023-05-10T07:37:24;12.60;99.90
26691;DHT22;14307;51.718;8.938;2023-05-10T07:39:51;12.60;99.90
26691;DHT22;14307;51.718;8.938;2023-05-10T07:42:18;12.70;99.90
26691;DHT22;14307;51.718;8.938;2023-05-10T07:44:44;12.70;99.90
26691;DHT22;14307;51.718;8.938;2023-05-10T07:47:11;12.70;99.90
26691;DHT22;14307;51.718;8.938;2023-05-10T07:49:38;12.60;99.90
26691;DHT22;14307;51.718;8.938;2023-05-10T07:52:05;12.70;99.90
26691;DHT22;14307;51.718;8.938;2023-05-10T07:54:31;12.80;99.90
26691;DHT22;14307;51.718;8.938;2023-05-10T07:56:59;12.90;99.90
26691;DHT22;14307;51.718;8.938;2023-05-10T07:59:26;12.90;99.90
26691;DHT22;14307;51.718;8.938;2023-05-10T08:01:53;12.90;99.90
26691;DHT22;14307;51.718;8.938;2023-05-10T08:04:19;13.10;99.90
26691;DHT22;14307;51.718;8.938;2023-05-10T08:06:46;13.40;99.90
26691;DHT22;14307;51.718;8.938;2023-05-10T08:09:13;13.60;99.90
26691;DHT22;14307;51.718;8.938;2023-05-10T08:11:40;13.70;99.90
26691;DHT22;14307;51.718;8.938;2023-05-10T08:14:06;13.70;99.90
26691;DHT22;14307;51.718;8.938;2023-05-10T08:16:33;13.50;99.90
26691;DHT22;14307;51.718;8.938;2023-05-10T08:19:00;13.40;99.90
26691;DHT22;14307;51.718;8.938;2023-05-10T08:21:28;13.40;99.90
26691;DHT22;14307;51.718;8.938;2023-05-10T08:23:54;13.50;99.90
26691;DHT22;14307;51.718;8.938;2023-05-10T08:26:21;13.50;99.90
26691;DHT22;14307;51.718;8.938;2023-05-10T08:28:48;13.50;99.90
26691;DHT22;14307;51.718;8.938;2023-05-10T08:31:15;13.60;99.90
26691;DHT22;14307;51.718;8.938;2023-05-10T08:33:42;13.70;99.90
26691;DHT22;14307;51.718;8.938;2023-05-10T08:36:10;14.10;99.90
26691;DHT22;14307;51.718;8.938;2023-05-10T08:38:37;14.20;99.90
26691;DHT22;14307;51.718;8.938;2023-05-10T08:41:05;14.30;99.90
26691;DHT22;14307;51.718;8.938;2023-05-10T08:43:32;14.30;99.90
26691;DHT22;14307;51.718;8.938;2023-05-10T08:46:00;14.20;99.90
26691;DHT22;14307;51.718;8.938;2023-05-10T08:48:29;14.20;99.90
26691;DHT22;14307;51.718;8.938;2023-05-10T08:50:58;14.10;99.90
26691;DHT22;14307;51.718;8.938;2023-05-10T08:53:28;13.90;99.90
26691;DHT22;14307;51.718;8.938;2023-05-10T08:55:57;13.90;99.90
26691;DHT22;14307;51.718;8.938;2023-05-10T08:58:24;13.80;99.90
26691;DHT22;14307;51.718;8.938;2023-05-10T09:00:51;13.60;99.90
26691;DHT22;14307;51.718;8.938;2023-05-10T09:03:18;13.50;99.90
26691;DHT22;14307;51.718;8.938;2023-05-10T09:05:45;13.60;99.90
26691;DHT22;14307;51.718;8.938;2023-05-10T09:08:14;13.80;99.90
26691;DHT22;14307;51.718;8.938;2023-05-10T09:10:44;14.00;99.90
26691;DHT22;14307;51.718;8.938;2023-05-10T09:13:14;14.30;99.90
26691;DHT22;14307;51.718;8.938;2023-05-10T09:15:43;14.40;99.90
26691;DHT22;14307;51.718;8.938;2023-05-10T09:18:10;14.30;99.90
26691;DHT22;14307;51.718;8.938;2023-05-10T09:20:37;14.20;99.90
26691;DHT22;14307;51.718;8.938;2023-05-10T09:23:04;14.10;99.90
26691;DHT22;14307;51.718;8.938;2023-05-10T09:25:31;13.80;99.90
26691;DHT22;14307;51.718;8.938;2023-05-10T09:28:00;13.60;99.90
26691;DHT22;14307;51.718;8.938;2023-05-10T09:30:28;13.50;99.90
26691;DHT22;14307;51.718;8.938;2023-05-10T09:32:59;13.60;99.90
26691;DHT22;14307;51.718;8.938;2023-05-10T09:35:30;13.70;99.90
26691;DHT22;14307;51.718;8.938;2023-05-10T09:38:01;13.90;99.90
26691;DHT22;14307;51.718;8.938;2023-05-10T09:40:29;14.20;99.90
26691;DHT22;14307;51.718;8.938;2023-05-10T09:42:57;14.40;99.90
26691;DHT22;14307;51.718;8.938;2023-05-10T09:45:26;14.40;99.90
26691;DHT22;14307;51.718;8.938;2023-05-10T09:47:54;14.50;99.90
26691;DHT22;14307;51.718;8.938;2023-05-10T09:50:21;14.50;99.90
26691;DHT22;14307;51.718;8.938;2023-05-10T09:52:56;14.40;99.90
26691;DHT22;14307;51.718;8.938;2023-05-10T09:55:42;14.40;99.90
26691;DHT22;14307;51.718;8.938;2023-05-10T09:58:13;14.50;99.90
26691;DHT22;14307;51.718;8.938;2023-05-10T10:00:42;14.60;99.90
26691;DHT22;14307;51.718;8.938;2023-05-10T10:03:15;14.60;99.90
26691;DHT22;14307;51.718;8.938;2023-05-10T10:05:42;14.50;99.90
26691;DHT22;14307;51.718;8.938;2023-05-10T10:08:10;14.90;99.90
26691;DHT22;14307;51.718;8.938;2023-05-10T10:10:38;15.20;99.90
26691;DHT22;14307;51.718;8.938;2023-05-10T10:13:07;15.20;99.90
26691;DHT22;14307;51.718;8.938;2023-05-10T10:15:35;15.00;99.90
26691;DHT22;14307;51.718;8.938;2023-05-10T10:18:02;15.10;99.90
26691;DHT22;14307;51.718;8.938;2023-05-10T10:20:33;15.20;99.90
26691;DHT22;14307;51.718;8.938;2023-05-10T10:22:59;15.60;99.90
26691;DHT22;14307;51.718;8.938;2023-05-10T10:25:26;15.70;99.90
26691;DHT22;14307;51.718;8.938;2023-05-10T10:32:59;16.50;99.90
26691;DHT22;14307;51.718;8.938;2023-05-10T10:35:43;17.00;99.90
26691;DHT22;14307;51.718;8.938;2023-05-10T10:38:12;17.30;99.90
26691;DHT22;14307;51.718;8.938;2023-05-10T10:40:39;17.40;99.90
26691;DHT22;14307;51.718;8.938;2023-05-10T10:43:25;17.90;99.90
26691;DHT22;14307;51.718;8.938;2023-05-10T10:46:13;18.00;99.90
26691;DHT22;14307;51.718;8.938;2023-05-10T10:48:41;18.00;99.90
26691;DHT22;14307;51.718;8.938;2023-05-10T10:51:08;18.00;99.90
26691;DHT22;14307;51.718;8.938;2023-05-10T10:53:39;18.30;99.90
26691;DHT22;14307;51.718;8.938;2023-05-10T10:56:10;18.70;99.90
26691;DHT22;14307;51.718;8.938;2023-05-10T10:58:38;18.40;99.90
26691;DHT22;14307;51.718;8.938;2023-05-10T11:01:14;18.40;99.90
26691;DHT22;14307;51.718;8.938;2023-05-10T11:04:40;18.50;99.90
26691;DHT22;14307;51.718;8.938;2023-05-10T11:06:41;18.20;99.90
26691;DHT22;14307;51.718;8.938;2023-05-10T11:09:10;17.70;99.90
26691;DHT22;14307;51.718;8.938;2023-05-10T11:11:54;17.20;99.90
26691;DHT22;14307;51.718;8.938;2023-05-10T11:14:25;17.00;99.90
26691;DHT22;14307;51.718;8.938;2023-05-10T11:16:52;16.80;99.90
26691;DHT22;14307;51.718;8.938;2023-05-10T11:19:20;16.90;99.90
26691;DHT22;14307;51.718;8.938;2023-05-10T11:21:52;17.30;99.90
26691;DHT22;14307;51.718;8.938;2023-05-10T11:24:37;17.90;99.90
26691;DHT22;14307;51.718;8.938;2023-05-10T11:27:05;18.40;99.90
26691;DHT22;14307;51.718;8.938;2023-05-10T11:29:31;18.50;99.90
26691;DHT22;14307;51.718;8.938;2023-05-10T11:31:59;18.50;99.90
26691;DHT22;14307;51.718;8.938;2023-05-10T11:34:31;18.70;99.90
26691;DHT22;14307;51.718;8.938;2023-05-10T11:36:59;18.90;99.90
26691;DHT22;14307;51.718;8.938;2023-05-10T11:39:28;19.00;99.90
26691;DHT22;14307;51.718;8.938;2023-05-10T11:41:56;19.20;99.90
26691;DHT22;14307;51.718;8.938;2023-05-10T11:44:23;19.10;99.90
26691;DHT22;14307;51.718;8.938;2023-05-10T11:46:50;19.30;99.90
26691;DHT22;14307;51.718;8.938;2023-05-10T11:49:17;19.30;99.90
26691;DHT22;14307;51.718;8.938;2023-05-10T11:51:44;19.20;99.90
26691;DHT22;14307;51.718;8.938;2023-05-10T11:54:11;19.20;99.90
26691;DHT22;14307;51.718;8.938;2023-05-10T11:56:41;19.40;99.90
26691;DHT22;14307;51.718;8.938;2023-05-10T11:59:07;19.80;99.90
26691;DHT22;14307;51.718;8.938;2023-05-10T12:01:35;19.80;99.90
26691;DHT22;14307;51.718;8.938;2023-05-10T12:04:02;19.50;99.90
26691;DHT22;14307;51.718;8.938;2023-05-10T12:06:31;18.90;99.90
26691;DHT22;14307;51.718;8.938;2023-05-10T12:08:59;18.30;99.90
26691;DHT22;14307;51.718;8.938;2023-05-10T12:11:27;17.70;99.90
26691;DHT22;14307;51.718;8.938;2023-05-10T12:13:55;17.30;99.90
26691;DHT22;14307;51.718;8.938;2023-05-10T12:16:25;17.20;99.90
26691;DHT22;14307;51.718;8.938;2023-05-10T12:18:55;17.20;99.90
26691;DHT22;14307;51.718;8.938;2023-05-10T12:21:22;17.30;99.90
26691;DHT22;14307;51.718;8.938;2023-05-10T12:23:54;17.20;99.90
26691;DHT22;14307;51.718;8.938;2023-05-10T12:26:22;17.60;99.90
26691;DHT22;14307;51.718;8.938;2023-05-10T12:28:49;18.30;99.90
26691;DHT22;14307;51.718;8.938;2023-05-10T12:31:16;18.70;99.90
26691;DHT22;14307;51.718;8.938;2023-05-10T12:33:44;18.80;99.90
26691;DHT22;14307;51.718;8.938;2023-05-10T12:36:13;18.50;99.90
26691;DHT22;14307;51.718;8.938;2023-05-10T12:38:42;18.30;99.90
26691;DHT22;14307;51.718;8.938;2023-05-10T12:41:16;18.60;99.90
26691;DHT22;14307;51.718;8.938;2023-05-10T12:43:44;18.50;99.90
26691;DHT22;14307;51.718;8.938;2023-05-10T12:46:13;18.50;99.90
26691;DHT22;14307;51.718;8.938;2023-05-10T12:48:42;18.30;99.90
26691;DHT22;14307;51.718;8.938;2023-05-10T12:51:09;17.70;99.90
26691;DHT22;14307;51.718;8.938;2023-05-10T12:53:38;17.00;99.90
26691;DHT22;14307;51.718;8.938;2023-05-10T12:56:09;16.70;99.90
26691;DHT22;14307;51.718;8.938;2023-05-10T12:58:36;16.30;99.90
26691;DHT22;14307;51.718;8.938;2023-05-10T13:01:04;16.10;99.90
26691;DHT22;14307;51.718;8.938;2023-05-10T13:03:31;16.00;99.90
26691;DHT22;14307;51.718;8.938;2023-05-10T13:05:58;16.10;99.90
26691;DHT22;14307;51.718;8.938;2023-05-10T13:08:25;16.40;99.90
26691;DHT22;14307;51.718;8.938;2023-05-10T13:10:52;17.30;99.90
26691;DHT22;14307;51.718;8.938;2023-05-10T13:13:18;18.10;99.90
26691;DHT22;14307;51.718;8.938;2023-05-10T13:15:45;18.30;99.90
26691;DHT22;14307;51.718;8.938;2023-05-10T13:18:12;18.30;99.90
26691;DHT22;14307;51.718;8.938;2023-05-10T13:20:38;18.30;99.90
26691;DHT22;14307;51.718;8.938;2023-05-10T13:23:05;18.60;99.90
26691;DHT22;14307;51.718;8.938;2023-05-10T13:25:32;18.80;99.90
26691;DHT22;14307;51.718;8.938;2023-05-10T13:28:00;18.50;99.90
26691;DHT22;14307;51.718;8.938;2023-05-10T13:30:27;18.10;99.90
26691;DHT22;14307;51.718;8.938;2023-05-10T13:32:55;18.10;99.90
26691;DHT22;14307;51.718;8.938;2023-05-10T13:35:21;18.00;99.90
26691;DHT22;14307;51.718;8.938;2023-05-10T13:37:48;18.10;99.90
26691;DHT22;14307;51.718;8.938;2023-05-10T13:40:16;18.30;99.90
26691;DHT22;14307;51.718;8.938;2023-05-10T13:42:43;18.60;99.90
26691;DHT22;14307;51.718;8.938;2023-05-10T13:45:10;18.70;99.90
26691;DHT22;14307;51.718;8.938;2023-05-10T13:47:38;19.10;99.90
26691;DHT22;14307;51.718;8.938;2023-05-10T13:50:05;19.30;99.90
26691;DHT22;14307;51.718;8.938;2023-05-10T13:52:32;19.30;99.90
26691;DHT22;14307;51.718;8.938;2023-05-10T13:54:59;19.30;99.90
26691;DHT22;14307;51.718;8.938;2023-05-10T13:57:26;19.10;99.90
26691;DHT22;14307;51.718;8.938;2023-05-10T13:59:52;18.80;99.90
26691;DHT22;14307;51.718;8.938;2023-05-10T14:02:23;18.70;99.90
26691;DHT22;14307;51.718;8.938;2023-05-10T14:04:50;18.50;99.90
26691;DHT22;14307;51.718;8.938;2023-05-10T14:07:16;18.40;99.90
26691;DHT22;14307;51.718;8.938;2023-05-10T14:09:44;18.50;99.90
26691;DHT22;14307;51.718;8.938;2023-05-10T14:12:10;18.60;99.90
26691;DHT22;14307;51.718;8.938;2023-05-10T14:14:37;18.70;99.90
26691;DHT22;14307;51.718;8.938;2023-05-10T14:17:04;18.70;99.90
26691;DHT22;14307;51.718;8.938;2023-05-10T14:19:31;18.70;99.90
26691;DHT22;14307;51.718;8.938;2023-05-10T14:22:00;18.60;99.90
26691;DHT22;14307;51.718;8.938;2023-05-10T14:24:27;18.60;99.90
26691;DHT22;14307;51.718;8.938;2023-05-10T14:26:53;18.60;99.90
26691;DHT22;14307;51.718;8.938;2023-05-10T14:29:21;18.80;99.90
26691;DHT22;14307;51.718;8.938;2023-05-10T14:31:49;18.90;99.90
26691;DHT22;14307;51.718;8.938;2023-05-10T14:34:16;18.80;99.90
26691;DHT22;14307;51.718;8.938;2023-05-10T14:36:42;18.50;99.90
26691;DHT22;14307;51.718;8.938;2023-05-10T14:39:09;18.20;99.90
26691;DHT22;14307;51.718;8.938;2023-05-10T14:41:39;17.90;99.90
26691;DHT22;14307;51.718;8.938;2023-05-10T14:44:07;17.30;99.90
26691;DHT22;14307;51.718;8.938;2023-05-10T14:46:34;16.70;99.90
26691;DHT22;14307;51.718;8.938;2023-05-10T14:49:01;16.40;99.90
26691;DHT22;14307;51.718;8.938;2023-05-10T14:51:28;16.10;99.90
26691;DHT22;14307;51.718;8.938;2023-05-10T14:53:54;15.80;99.90
26691;DHT22;14307;51.718;8.938;2023-05-10T14:56:21;15.60;99.90
26691;DHT22;14307;51.718;8.938;2023-05-10T14:58:49;15.40;99.90
26691;DHT22;14307;51.718;8.938;2023-05-10T15:01:16;15.30;99.90
26691;DHT22;14307;51.718;8.938;2023-05-10T15:03:43;15.20;99.90
26691;DHT22;14307;51.718;8.938;2023-05-10T15:06:10;15.10;99.90
26691;DHT22;14307;51.718;8.938;2023-05-10T15:08:37;15.10;99.90
26691;DHT22;14307;51.718;8.938;2023-05-10T15:11:04;15.00;99.90
26691;DHT22;14307;51.718;8.938;2023-05-10T15:13:30;14.90;99.90
26691;DHT22;14307;51.718;8.938;2023-05-10T15:15:57;14.80;99.90
26691;DHT22;14307;51.718;8.938;2023-05-10T15:18:24;14.70;99.90
26691;DHT22;14307;51.718;8.938;2023-05-10T15:20:51;14.70;99.90
26691;DHT22;14307;51.718;8.938;2023-05-10T15:23:17;14.70;99.90
26691;DHT22;14307;51.718;8.938;2023-05-10T15:25:44;14.60;99.90
26691;DHT22;14307;51.718;8.938;2023-05-10T15:28:11;14.60;99.90
26691;DHT22;14307;51.718;8.938;2023-05-10T15:30:38;14.60;99.90
26691;DHT22;14307;51.718;8.938;2023-05-10T15:33:05;14.40;99.90
26691;DHT22;14307;51.718;8.938;2023-05-10T15:35:31;14.20;99.90
26691;DHT22;14307;51.718;8.938;2023-05-10T15:37:58;14.10;99.90
26691;DHT22;14307;51.718;8.938;2023-05-10T15:40:25;14.10;99.90
26691;DHT22;14307;51.718;8.938;2023-05-10T15:42:51;14.00;99.90
26691;DHT22;14307;51.718;8.938;2023-05-10T15:45:18;13.80;99.90
26691;DHT22;14307;51.718;8.938;2023-05-10T15:47:46;13.80;99.90
26691;DHT22;14307;51.718;8.938;2023-05-10T15:50:14;13.80;99.90
26691;DHT22;14307;51.718;8.938;2023-05-10T15:52:41;13.80;99.90
26691;DHT22;14307;51.718;8.938;2023-05-10T15:55:08;13.90;99.90
26691;DHT22;14307;51.718;8.938;2023-05-10T15:57:40;13.90;99.90